Waterville, ME (04901)

8:43 PM EDT on June 22, 2017 (GMT -0400)
Waterville Maine - Silver Street | | Change Station

Elev 125 ft 44.54 °N, 69.64 °W | Updated 23 seconds ago

Partly Cloudy
Partly Cloudy
70.9 °F
Feels Like 76 °F
N
0.0
Wind Variable Wind from South
Gusts 0.0 mph

Today
High -- | Low -- °F
--% Chance of Precip.
Yesterday
High -- | Low -- °F
Precip. -- in
Pressure 29.91 in
Visibility 10.0 miles
Clouds Few 12000 ft
Heat Index 76 °F
Dew Point 34 °F
Humidity 26%
Rainfall 0.00 in
Snow Depth Not available.
4:53 AM 8:27 PM
Waning Crescent, 2% visible
METAR KWVL 222356Z AUTO 27003KT 10SM FEW120 22/13 A2984 RMK AO2 SLP128 T02170128 10261 20217 53007
Pressure 29.91 in
Visibility 10.0 miles
Clouds Few 12000 ft
Heat Index 76 °F
Dew Point 34 °F
Humidity 26%
Rainfall 0.00 in
Snow Depth Not available.
4:53 AM 8:27 PM
Waning Crescent, 2% visible
METAR KWVL 222356Z AUTO 27003KT 10SM FEW120 22/13 A2984 RMK AO2 SLP128 T02170128 10261 20217 53007

Get Severe Weather Alerts

Thanks for signing up!

Be on the lookout for a verification email in your inbox.

You'll start receiving the daily forecast at 6 AM.

×

10-Day Weather Forecast

Almanac

Astronomy

Jun. 22, 2017 Rise Set
Actual Time
Civil Twilight
Nautical Twilight
Astronomical Twilight
Moon
Length of Visible Light
Length of Day
Tomorrow will be .
, % of the Moon is Illuminated

Today's Extremes

State Highs State Lows

Community

WunderPhotos

Category 6

Welcome to Category 6. This is the collective home for Weather Underground's featured writeups by Dr. Jeff Masters (right), Bob Henson (left), Chris Burt, and other regular contributors.

Nearby

Air Quality

  Air Quality AQ Index Pollutant
Not available.

Snow Depth

Station Depth Elevation

Earthquake Activity

City Distance Mag. Time & Date
Minimum magnitude displayed is 2.5.

Coastal Water Temperatures

Place Temperature

Stations

Nearby Weather Stations

Station Location Temp. Windchill Dew Point Humidity Wind Precip. Elev Updated Type
                   

Watches & Warnings

There are currently no watches in effect.